createdAt,value
2018-10-12T00:01:54.993Z,67.30
2018-10-12T00:04:34.875Z,67.50
2018-10-12T00:07:08.460Z,67.90
2018-10-12T00:09:42.840Z,67.70
2018-10-12T00:12:16.450Z,67.60
2018-10-12T00:14:49.923Z,67.90
2018-10-12T00:17:23.446Z,68.00
2018-10-12T00:19:56.816Z,68.00
2018-10-12T00:22:36.570Z,67.90
2018-10-12T00:25:10.066Z,67.80
2018-10-12T00:27:44.742Z,68.00
2018-10-12T00:30:18.317Z,68.30
2018-10-12T00:32:52.008Z,68.10
2018-10-12T00:35:26.548Z,67.90
2018-10-12T00:37:59.997Z,67.90
2018-10-12T00:40:33.516Z,67.90
2018-10-12T00:43:13.346Z,67.90
2018-10-12T00:45:53.330Z,68.00
2018-10-12T00:48:27.801Z,68.10
2018-10-12T00:51:01.411Z,68.20
2018-10-12T00:53:34.940Z,68.10
2018-10-12T00:56:08.447Z,68.10
2018-10-12T00:58:42.000Z,68.20
2018-10-12T01:01:21.953Z,68.20
2018-10-12T01:03:55.363Z,68.30
2018-10-12T01:06:35.351Z,68.20
2018-10-12T01:09:08.739Z,68.20
2018-10-12T01:11:42.329Z,68.10
2018-10-12T01:14:15.844Z,68.10
2018-10-12T01:16:49.364Z,68.20
2018-10-12T01:19:22.967Z,68.20
2018-10-12T01:21:56.512Z,68.20
2018-10-12T01:24:29.907Z,68.10
2018-10-12T01:27:06.539Z,68.20
2018-10-12T01:29:40.126Z,68.10
2018-10-12T01:32:18.392Z,68.40
2018-10-12T01:34:52.360Z,68.40
2018-10-12T01:37:26.154Z,68.50
2018-10-12T01:40:04.671Z,68.60
2018-10-12T01:42:38.137Z,68.40
2018-10-12T01:45:11.642Z,68.50
2018-10-12T01:47:45.093Z,68.70
2018-10-12T01:52:59.039Z,68.70
2018-10-12T01:55:32.689Z,68.60
2018-10-12T01:58:06.196Z,68.60
2018-10-12T02:00:40.753Z,68.50
2018-10-12T02:03:14.170Z,68.70
2018-10-12T02:05:47.763Z,68.90
2018-10-12T02:08:21.218Z,68.80
2018-10-12T02:10:54.814Z,68.70
2018-10-12T02:13:28.287Z,68.60
2018-10-12T02:16:01.777Z,68.20
2018-10-12T02:18:38.227Z,69.00
2018-10-12T02:21:11.879Z,68.90
2018-10-12T02:23:45.365Z,69.00
2018-10-12T02:26:18.985Z,69.00
2018-10-12T02:28:52.472Z,69.20
2018-10-12T02:31:32.666Z,69.30
2018-10-12T02:34:06.112Z,69.40
2018-10-12T02:36:39.560Z,69.40
2018-10-12T02:39:14.530Z,69.50
2018-10-12T02:41:48.091Z,69.60
2018-10-12T02:44:21.527Z,69.60
2018-10-12T02:46:54.975Z,69.70
2018-10-12T02:49:28.474Z,69.90
2018-10-12T02:52:02.989Z,69.70
2018-10-12T02:54:36.417Z,70.10
2018-10-12T02:57:16.397Z,70.20
2018-10-12T02:59:49.878Z,70.10
2018-10-12T03:02:23.419Z,70.00
2018-10-12T03:04:56.845Z,70.00
2018-10-12T03:07:30.351Z,69.90
2018-10-12T03:10:04.976Z,69.80
2018-10-12T03:12:38.825Z,69.80
2018-10-12T03:15:12.364Z,70.00
2018-10-12T03:17:45.931Z,70.00
2018-10-12T03:20:19.527Z,70.00
2018-10-12T03:22:53.028Z,70.10
2018-10-12T03:25:26.577Z,70.80
2018-10-12T03:28:11.849Z,70.10
2018-10-12T03:30:45.325Z,70.00
2018-10-12T03:33:18.863Z,70.10
2018-10-12T03:35:52.365Z,70.40
2018-10-12T03:38:26.617Z,70.50
2018-10-12T03:41:00.218Z,70.40
2018-10-12T03:43:33.744Z,70.50
2018-10-12T03:46:07.385Z,70.70
2018-10-12T03:48:40.873Z,70.80
2018-10-12T03:51:14.238Z,70.80
2018-10-12T03:53:47.805Z,70.80
2018-10-12T03:56:21.401Z,71.00
2018-10-12T03:58:55.078Z,71.10
2018-10-12T04:01:28.598Z,71.00
2018-10-12T04:04:01.972Z,71.00
2018-10-12T04:06:35.438Z,71.00
2018-10-12T04:09:15.426Z,71.00
2018-10-12T04:11:55.251Z,71.70
2018-10-12T04:14:28.630Z,71.10
2018-10-12T04:17:02.018Z,71.40
2018-10-12T04:19:42.063Z,71.70
2018-10-12T04:22:19.731Z,71.90
2018-10-12T04:24:53.202Z,72.00
2018-10-12T04:27:33.056Z,72.10
2018-10-12T04:30:08.873Z,72.20
2018-10-12T04:32:48.688Z,72.20
2018-10-12T04:35:26.299Z,72.10
2018-10-12T04:37:59.852Z,72.40
2018-10-12T04:41:23.011Z,72.60
2018-10-12T04:43:58.239Z,72.40
2018-10-12T04:46:39.538Z,72.30
2018-10-12T04:49:19.538Z,72.60
2018-10-12T04:51:54.706Z,72.50
2018-10-12T04:54:28.301Z,73.50
2018-10-12T04:57:02.049Z,73.10
2018-10-12T04:59:35.603Z,73.30
2018-10-12T05:02:15.309Z,74.00
2018-10-12T05:04:48.894Z,73.70
2018-10-12T05:07:28.733Z,73.60
2018-10-12T05:10:02.291Z,73.30
2018-10-12T05:12:42.317Z,73.50
2018-10-12T05:15:15.937Z,73.60
2018-10-12T05:17:49.382Z,73.80
2018-10-12T05:20:22.966Z,73.80
2018-10-12T05:23:02.994Z,73.80
2018-10-12T05:25:36.475Z,73.80
2018-10-12T05:28:16.511Z,74.00
2018-10-12T05:30:50.016Z,74.00
2018-10-12T05:33:23.462Z,74.10
2018-10-12T05:35:57.042Z,74.10
2018-10-12T05:38:36.938Z,74.00
2018-10-12T05:41:16.891Z,73.90
2018-10-12T05:43:50.470Z,74.20
2018-10-12T05:46:23.985Z,74.20
2018-10-12T05:49:09.242Z,74.10
2018-10-12T05:51:42.752Z,73.90
2018-10-12T05:54:22.550Z,73.80
2018-10-12T05:56:56.170Z,73.70
2018-10-12T05:59:29.710Z,73.90
2018-10-12T06:02:09.689Z,74.00
2018-10-12T06:04:43.174Z,74.00
2018-10-12T06:07:23.077Z,74.70
2018-10-12T06:10:03.077Z,74.20
2018-10-12T06:12:36.658Z,74.30
2018-10-12T06:15:10.008Z,74.70
2018-10-12T06:17:43.819Z,74.30
2018-10-12T06:20:23.716Z,74.30
2018-10-12T06:22:57.297Z,74.20
2018-10-12T06:25:30.749Z,74.50
2018-10-12T06:28:10.495Z,74.60
2018-10-12T06:30:44.074Z,74.90
2018-10-12T06:33:17.673Z,75.40
2018-10-12T06:35:57.535Z,75.80
2018-10-12T06:38:31.093Z,75.40
2018-10-12T06:41:04.815Z,75.30
2018-10-12T06:43:38.261Z,75.60
2018-10-12T06:46:18.129Z,75.90
2018-10-12T06:48:51.724Z,75.70
2018-10-12T06:51:31.701Z,75.70
2018-10-12T06:54:11.875Z,75.60
2018-10-12T06:56:47.009Z,75.70
2018-10-12T06:59:21.421Z,75.80
2018-10-12T07:01:54.994Z,76.30
2018-10-12T07:04:35.169Z,76.10
2018-10-12T07:07:08.729Z,75.90
2018-10-12T07:09:42.305Z,76.20
2018-10-12T07:12:15.999Z,76.40
2018-10-12T07:14:50.365Z,76.30
2018-10-12T07:17:24.006Z,76.20
2018-10-12T07:19:57.476Z,76.20
2018-10-12T07:22:37.384Z,76.30
2018-10-12T07:25:10.926Z,76.50
2018-10-12T07:27:44.305Z,76.70
2018-10-12T07:30:17.900Z,76.90
2018-10-12T07:32:51.420Z,76.80
2018-10-12T07:35:24.986Z,76.90
2018-10-12T07:37:58.651Z,77.10
2018-10-12T07:40:32.333Z,77.00
2018-10-12T07:43:05.704Z,77.30
2018-10-12T07:45:45.610Z,77.40
2018-10-12T07:48:19.287Z,77.40
2018-10-12T07:50:58.894Z,77.30
2018-10-12T07:53:33.407Z,77.20
2018-10-12T07:56:08.034Z,77.30
2018-10-12T07:58:41.672Z,77.10
2018-10-12T08:01:17.264Z,77.00
2018-10-12T08:03:51.060Z,76.80
2018-10-12T08:06:24.843Z,76.80
2018-10-12T08:08:58.368Z,76.80
2018-10-12T08:11:38.601Z,76.70
2018-10-12T08:14:18.445Z,76.50
2018-10-12T08:16:51.825Z,76.40
2018-10-12T08:19:31.818Z,76.40
2018-10-12T08:22:11.536Z,76.40
2018-10-12T08:24:45.037Z,77.00
2018-10-12T08:27:18.498Z,76.20
2018-10-12T08:29:51.936Z,76.30
2018-10-12T08:32:25.630Z,76.20
2018-10-12T08:35:00.009Z,76.10
2018-10-12T08:37:33.523Z,76.10
2018-10-12T08:40:10.128Z,76.40
2018-10-12T08:42:43.891Z,76.40
2018-10-12T08:45:23.705Z,76.20
2018-10-12T08:48:03.568Z,76.00
2018-10-12T08:50:38.075Z,75.80
2018-10-12T08:53:12.646Z,75.60
2018-10-12T08:55:46.240Z,75.40
2018-10-12T08:58:19.681Z,74.80
2018-10-12T09:00:53.265Z,74.80
2018-10-12T09:03:26.714Z,74.70
2018-10-12T09:06:00.213Z,74.40
2018-10-12T09:08:34.569Z,74.00
2018-10-12T09:11:08.200Z,73.60
2018-10-12T09:13:41.908Z,73.40
2018-10-12T09:16:21.872Z,73.10
2018-10-12T09:18:55.483Z,73.10
2018-10-12T09:21:30.748Z,73.00
2018-10-12T09:24:10.888Z,72.90
2018-10-12T09:26:50.865Z,73.10
2018-10-12T09:29:24.377Z,70.50
2018-10-12T09:32:04.323Z,69.30
2018-10-12T09:34:44.041Z,64.90
2018-10-12T09:37:25.054Z,62.30
2018-10-12T09:40:04.882Z,60.90
2018-10-12T09:42:38.340Z,58.20
2018-10-12T09:45:18.258Z,55.70
2018-10-12T09:47:51.589Z,57.50
2018-10-12T09:50:25.168Z,59.90
2018-10-12T09:52:58.493Z,62.10
2018-10-12T09:55:32.750Z,63.60
2018-10-12T09:58:12.861Z,64.60
2018-10-12T10:00:52.172Z,64.30
2018-10-12T10:03:31.261Z,65.10
2018-10-12T10:06:04.846Z,65.60
2018-10-12T10:08:38.655Z,65.40
2018-10-12T10:11:12.062Z,65.60
2018-10-12T10:13:45.769Z,66.00
2018-10-12T10:16:20.274Z,65.00
2018-10-12T10:18:53.758Z,65.10
2018-10-12T10:21:27.441Z,65.30
2018-10-12T10:24:07.337Z,65.00
2018-10-12T10:26:40.886Z,65.10
2018-10-12T10:29:20.850Z,65.40
2018-10-12T10:31:54.405Z,64.90
2018-10-12T10:34:34.316Z,64.50
2018-10-12T10:37:07.958Z,64.40
2018-10-12T10:39:41.809Z,64.10
2018-10-12T10:42:15.542Z,63.30
2018-10-12T10:44:49.074Z,63.30
2018-10-12T10:47:29.049Z,63.00
2018-10-12T10:50:02.782Z,62.20
2018-10-12T10:52:36.417Z,61.90
2018-10-12T10:55:10.190Z,62.60
2018-10-12T10:57:44.810Z,61.10
2018-10-12T11:00:18.466Z,61.90
2018-10-12T11:02:52.137Z,60.90
2018-10-12T11:05:25.813Z,60.90
2018-10-12T11:08:00.358Z,60.50
2018-10-12T11:10:34.118Z,60.60
2018-10-12T11:13:07.582Z,60.60
2018-10-12T11:15:41.400Z,59.90
2018-10-12T11:18:16.109Z,59.80
2018-10-12T11:20:55.996Z,59.40
2018-10-12T11:23:36.049Z,59.50
2018-10-12T11:26:15.992Z,59.60
2018-10-12T11:28:49.550Z,59.30
2018-10-12T11:31:23.255Z,59.30
2018-10-12T11:33:56.871Z,59.20
2018-10-12T11:36:36.868Z,59.30
2018-10-12T11:39:12.367Z,59.10
2018-10-12T11:41:46.008Z,58.40
2018-10-12T11:44:25.843Z,58.40
2018-10-12T11:46:59.488Z,58.30
2018-10-12T11:49:33.072Z,58.40
2018-10-12T11:52:06.810Z,58.60
2018-10-12T11:54:40.327Z,57.80
2018-10-12T11:57:13.891Z,57.70
2018-10-12T11:59:47.497Z,57.70
2018-10-12T12:02:27.463Z,57.10
2018-10-12T12:05:01.068Z,57.10
2018-10-12T12:07:40.993Z,57.00
2018-10-12T12:10:14.611Z,56.90
2018-10-12T12:12:48.165Z,56.80
2018-10-12T12:15:28.224Z,56.10
2018-10-12T12:18:08.102Z,56.50
2018-10-12T12:20:41.722Z,56.60
2018-10-12T12:23:15.452Z,55.30
2018-10-12T12:25:49.174Z,55.60
2018-10-12T12:28:29.172Z,55.50
2018-10-12T12:31:02.787Z,55.80
2018-10-12T12:33:36.380Z,55.40
2018-10-12T12:36:10.193Z,55.40
2018-10-12T12:38:45.177Z,55.00
2018-10-12T12:41:18.556Z,54.60
2018-10-12T12:43:53.000Z,54.80
2018-10-12T12:46:26.721Z,54.00
2018-10-12T12:49:07.288Z,54.00
2018-10-12T12:51:40.613Z,54.00
2018-10-12T12:54:15.037Z,54.20
2018-10-12T12:56:48.586Z,53.10
2018-10-12T12:59:28.650Z,53.10
2018-10-12T13:02:02.200Z,51.70
2018-10-12T13:04:35.779Z,52.00
2018-10-12T13:07:16.653Z,52.40
2018-10-12T13:09:50.511Z,52.20
2018-10-12T13:12:30.576Z,52.60
2018-10-12T13:15:04.760Z,52.30
2018-10-12T13:17:38.136Z,51.60
2018-10-12T13:20:11.567Z,51.60
2018-10-12T13:22:49.274Z,52.70
2018-10-12T13:25:29.190Z,52.00
2018-10-12T13:28:03.706Z,49.10
2018-10-12T13:30:37.313Z,47.20
2018-10-12T13:33:10.960Z,43.10
2018-10-12T13:35:44.348Z,44.50
2018-10-12T13:38:24.408Z,44.50
2018-10-12T13:40:57.999Z,42.90
2018-10-12T13:43:31.633Z,42.20
2018-10-12T13:46:05.102Z,42.40
2018-10-12T13:48:38.833Z,42.30
2018-10-12T13:51:12.571Z,42.50
2018-10-12T13:53:52.414Z,43.90
2018-10-12T13:56:26.055Z,42.80
2018-10-12T13:59:06.076Z,42.50
2018-10-12T14:01:46.030Z,41.40
2018-10-12T14:04:19.567Z,41.90
2018-10-12T14:06:53.284Z,41.90
2018-10-12T14:09:27.364Z,41.70
2018-10-12T14:12:07.690Z,39.70
2018-10-12T14:14:41.296Z,41.00
2018-10-12T14:17:15.802Z,39.40
2018-10-12T14:19:55.791Z,38.40
2018-10-12T14:22:29.406Z,38.50
2018-10-12T14:25:03.104Z,38.40
2018-10-12T14:27:36.606Z,38.00
2018-10-12T14:30:16.518Z,37.50
2018-10-12T14:32:56.350Z,38.30
2018-10-12T14:35:30.193Z,39.00
2018-10-12T14:38:10.099Z,40.40
2018-10-12T14:40:43.654Z,42.00
2018-10-12T14:43:23.618Z,43.20
2018-10-12T14:45:57.193Z,43.80
2018-10-12T14:48:30.718Z,43.80
2018-10-12T14:51:04.194Z,44.00
2018-10-12T14:53:37.789Z,44.60
2018-10-12T14:56:11.318Z,44.80
2018-10-12T14:58:51.128Z,45.50
2018-10-12T15:01:30.873Z,46.30
2018-10-12T15:04:05.652Z,46.60
2018-10-12T15:06:39.254Z,47.00
2018-10-12T15:09:19.228Z,46.90
2018-10-12T15:11:52.705Z,47.50
2018-10-12T15:14:44.283Z,48.50
2018-10-12T15:17:24.092Z,47.70
2018-10-12T15:20:04.001Z,48.00
2018-10-12T15:22:37.360Z,48.50
2018-10-12T15:25:17.585Z,48.80
2018-10-12T15:27:50.982Z,48.90
2018-10-12T15:30:24.632Z,49.10
2018-10-12T15:32:58.315Z,49.10
2018-10-12T15:35:32.013Z,49.40
2018-10-12T15:38:05.367Z,50.00
2018-10-12T15:40:39.366Z,49.70
2018-10-12T15:43:19.319Z,50.10
2018-10-12T15:45:59.141Z,50.40
2018-10-12T15:48:32.741Z,50.80
2018-10-12T15:51:06.346Z,51.20
2018-10-12T15:53:39.929Z,51.30
2018-10-12T15:56:13.366Z,51.40
2018-10-12T15:58:47.866Z,51.70
2018-10-12T16:01:21.769Z,51.60
2018-10-12T16:03:55.361Z,52.10
2018-10-12T16:06:28.925Z,52.50
2018-10-12T16:09:02.533Z,52.90
2018-10-12T16:11:42.445Z,53.20
2018-10-12T16:14:22.360Z,53.30
2018-10-12T16:17:02.363Z,53.50
2018-10-12T16:19:35.783Z,53.70
2018-10-12T16:22:09.877Z,54.00
2018-10-12T16:24:54.919Z,54.10
2018-10-12T16:27:28.459Z,54.30
2018-10-12T16:30:08.344Z,54.40
2018-10-12T16:32:41.808Z,54.50
2018-10-12T16:35:15.539Z,54.80
2018-10-12T16:37:49.216Z,55.00
2018-10-12T16:40:23.841Z,55.20
2018-10-12T16:42:57.500Z,55.90
2018-10-12T16:45:31.182Z,55.30
2018-10-12T16:48:11.906Z,55.70
2018-10-12T16:50:45.530Z,55.50
2018-10-12T16:53:18.973Z,56.20
2018-10-12T16:55:58.870Z,55.90
2018-10-12T16:58:39.009Z,56.10
2018-10-12T17:01:12.407Z,56.10
2018-10-12T17:03:52.230Z,56.30
2018-10-12T17:06:25.927Z,56.40
2018-10-12T17:09:05.960Z,56.60
2018-10-12T17:11:39.424Z,56.60
2018-10-12T17:14:13.009Z,56.80
2018-10-12T17:16:46.493Z,56.90
2018-10-12T17:19:26.153Z,56.90
2018-10-12T17:21:59.680Z,56.90
2018-10-12T17:24:39.678Z,57.10
2018-10-12T17:27:13.509Z,57.30
2018-10-12T17:29:47.887Z,57.50
2018-10-12T17:32:21.350Z,57.40
2018-10-12T17:34:54.927Z,57.70
2018-10-12T17:37:34.673Z,57.90
2018-10-12T17:40:09.834Z,58.20
2018-10-12T17:42:43.275Z,58.20
2018-10-12T17:45:16.802Z,58.30
2018-10-12T17:47:51.117Z,58.60
2018-10-12T17:50:30.923Z,58.80
2018-10-12T17:53:05.033Z,58.70
2018-10-12T17:55:38.551Z,59.20
2018-10-12T17:58:18.593Z,58.70
2018-10-12T18:00:52.154Z,58.70
2018-10-12T18:03:31.935Z,58.50
2018-10-12T18:06:11.776Z,58.80
2018-10-12T18:08:45.617Z,59.20
2018-10-12T18:11:20.153Z,59.30
2018-10-12T18:14:03.001Z,59.60
2018-10-12T18:16:36.494Z,59.70
2018-10-12T18:19:17.050Z,59.80
2018-10-12T18:21:50.572Z,59.90
2018-10-12T18:24:25.045Z,60.10
2018-10-12T18:27:04.988Z,60.30
2018-10-12T18:29:38.674Z,60.30
2018-10-12T18:32:18.593Z,60.60
2018-10-12T18:34:58.621Z,60.70
2018-10-12T18:37:32.184Z,60.70
2018-10-12T18:40:05.720Z,61.00
2018-10-12T18:42:39.267Z,61.00
2018-10-12T18:45:12.806Z,61.10
2018-10-12T18:47:52.899Z,61.30
2018-10-12T18:50:26.436Z,61.40
2018-10-12T18:52:59.946Z,61.30
2018-10-12T18:55:39.914Z,61.70
2018-10-12T18:58:13.449Z,61.40
2018-10-12T19:00:53.353Z,61.20
2018-10-12T19:03:26.744Z,61.30
2018-10-12T19:06:06.919Z,61.40
2018-10-12T19:08:40.512Z,61.30
2018-10-12T19:11:14.010Z,61.60
2018-10-12T19:13:53.906Z,61.50
2018-10-12T19:16:34.118Z,61.50
2018-10-12T19:19:08.768Z,61.70
2018-10-12T19:21:43.382Z,61.70
2018-10-12T19:24:16.954Z,61.80
2018-10-12T19:26:50.506Z,61.70
2018-10-12T19:29:24.216Z,61.60
2018-10-12T19:31:57.816Z,61.50
2018-10-12T19:34:37.477Z,61.40
2018-10-12T19:37:11.034Z,61.60
2018-10-12T19:39:44.706Z,61.70
2018-10-12T19:42:18.230Z,62.00
2018-10-12T19:44:58.136Z,62.00
2018-10-12T19:47:31.753Z,61.90
2018-10-12T19:50:05.531Z,61.90
2018-10-12T19:52:39.110Z,62.10
2018-10-12T19:55:13.745Z,62.00
2018-10-12T19:57:53.512Z,61.80
2018-10-12T20:00:27.130Z,61.60
2018-10-12T20:03:00.490Z,61.40
2018-10-12T20:05:40.288Z,61.40
2018-10-12T20:08:20.080Z,61.40
2018-10-12T20:10:58.974Z,61.50
2018-10-12T20:13:38.847Z,61.60
2018-10-12T20:16:12.461Z,61.50
2018-10-12T20:21:26.286Z,61.70
2018-10-12T20:23:59.889Z,61.70
2018-10-12T20:26:34.385Z,61.90
2018-10-12T20:29:20.978Z,62.10
2018-10-12T20:31:54.634Z,62.10
2018-10-12T20:34:29.099Z,62.10
2018-10-12T20:37:02.721Z,62.20
2018-10-12T20:39:36.306Z,62.30
2018-10-12T20:42:16.215Z,62.50
2018-10-12T20:44:56.342Z,62.50
2018-10-12T20:47:30.756Z,62.50
2018-10-12T20:50:04.196Z,62.90
2018-10-12T20:52:44.044Z,63.00
2018-10-12T20:55:17.588Z,63.30
2018-10-12T20:57:57.543Z,63.10
2018-10-12T21:00:31.223Z,63.40
2018-10-12T21:03:10.969Z,64.30
2018-10-12T21:05:44.582Z,64.00
2018-10-12T21:08:18.063Z,64.60
2018-10-12T21:10:51.659Z,63.90
2018-10-12T21:13:25.419Z,64.10
2018-10-12T21:16:05.640Z,64.20
2018-10-12T21:18:39.205Z,64.40
2018-10-12T21:21:12.892Z,64.60
2018-10-12T21:23:52.853Z,64.70
2018-10-12T21:26:27.361Z,64.70
2018-10-12T21:29:00.761Z,64.70
2018-10-12T21:31:34.382Z,65.00
2018-10-12T21:34:08.158Z,65.20
2018-10-12T21:36:41.633Z,65.20
2018-10-12T21:39:15.575Z,65.10
2018-10-12T21:41:49.078Z,65.10
2018-10-12T21:44:22.582Z,65.00
2018-10-12T21:46:56.302Z,65.00
2018-10-12T21:49:29.893Z,65.20
2018-10-12T21:52:03.571Z,65.30
2018-10-12T21:54:38.156Z,65.50
2018-10-12T21:57:11.722Z,65.50
2018-10-12T21:59:45.267Z,66.00
2018-10-12T22:02:20.561Z,65.80
2018-10-12T22:05:00.446Z,65.60
2018-10-12T22:07:34.052Z,65.60
2018-10-12T22:10:14.085Z,65.90
2018-10-12T22:12:47.835Z,66.20
2018-10-12T22:15:21.400Z,66.00
2018-10-12T22:17:54.982Z,66.10
2018-10-12T22:20:28.559Z,66.10
2018-10-12T22:23:08.563Z,66.10
2018-10-12T22:25:43.262Z,66.10
2018-10-12T22:28:16.860Z,66.20
2018-10-12T22:30:50.423Z,66.00
2018-10-12T22:33:25.791Z,65.80
2018-10-12T22:36:04.590Z,66.00
2018-10-12T22:38:40.247Z,65.90
2018-10-12T22:41:13.778Z,65.90
2018-10-12T22:43:47.354Z,66.10
2018-10-12T22:46:21.061Z,66.30
2018-10-12T22:48:54.734Z,66.50
2018-10-12T22:51:28.266Z,66.70
2018-10-12T22:54:01.712Z,66.80
2018-10-12T22:56:41.660Z,66.80
2018-10-12T22:59:16.122Z,67.10
2018-10-12T23:01:49.784Z,66.50
2018-10-12T23:04:23.478Z,67.30
2018-10-12T23:06:56.971Z,67.30
2018-10-12T23:09:36.782Z,67.60
2018-10-12T23:12:10.245Z,67.60
2018-10-12T23:14:43.676Z,67.60
2018-10-12T23:17:18.167Z,67.60
2018-10-12T23:19:52.861Z,67.50
2018-10-12T23:22:27.500Z,67.60
2018-10-12T23:25:01.192Z,67.70
2018-10-12T23:27:41.088Z,67.70
2018-10-12T23:30:15.734Z,67.70
2018-10-12T23:32:49.293Z,67.90
2018-10-12T23:35:29.135Z,68.20
2018-10-12T23:38:09.687Z,68.10
2018-10-12T23:40:43.185Z,68.30
2018-10-12T23:43:16.889Z,68.70
2018-10-12T23:45:50.486Z,68.90
2018-10-12T23:48:24.131Z,68.90
2018-10-12T23:51:01.816Z,69.00
2018-10-12T23:53:35.409Z,69.00
2018-10-12T23:56:10.116Z,68.90
2018-10-12T23:58:44.017Z,68.70
